createdAt,value
2016-03-27T15:34:43.592Z,740
2016-03-27T15:35:43.173Z,725
2016-03-27T15:36:43.800Z,640
2016-03-27T15:37:43.725Z,465
2016-03-27T15:38:43.009Z,165
2016-03-27T15:39:43.605Z,105
2016-03-27T15:40:43.592Z,95
2016-03-27T15:41:43.454Z,150
2016-03-27T15:42:41.363Z,185
2016-03-27T15:43:43.022Z,265
2016-03-27T15:44:43.118Z,370
2016-03-27T15:45:43.653Z,240
2016-03-27T15:46:42.889Z,245
2016-03-27T15:47:43.064Z,345
2016-03-27T15:48:42.864Z,200
2016-03-27T15:49:42.913Z,105
2016-03-27T15:50:43.197Z,140
2016-03-27T15:51:43.183Z,75
2016-03-27T15:52:41.874Z,65
2016-03-27T15:53:43.049Z,65
2016-03-27T15:54:43.177Z,60
2016-03-27T15:55:43.132Z,55
2016-03-27T15:56:58.338Z,55
2016-03-27T15:57:46.857Z,50
2016-03-27T15:58:44.781Z,205
2016-03-27T15:59:45.299Z,255
2016-03-27T16:01:11.287Z,200
2016-03-27T16:01:44.415Z,330
2016-03-27T16:03:44.872Z,90
2016-03-27T16:04:45.515Z,70
2016-03-27T16:05:43.128Z,60
2016-03-27T16:07:42.523Z,50
2016-03-27T16:08:42.480Z,50
2016-03-27T16:09:43.014Z,50
2016-03-27T16:10:42.375Z,45
2016-03-27T16:11:42.659Z,45
2016-03-27T16:12:42.740Z,50
2016-03-27T16:13:42.603Z,125
2016-03-27T16:14:56.152Z,170
2016-03-27T16:15:42.811Z,165
2016-03-27T16:16:42.455Z,220
2016-03-27T16:17:42.503Z,165
2016-03-27T16:18:42.694Z,135
2016-03-27T16:19:42.572Z,160
2016-03-27T16:20:45.872Z,145
2016-03-27T16:21:56.999Z,120
2016-03-27T16:22:42.252Z,115
2016-03-27T16:23:42.130Z,115
2016-03-27T16:24:42.507Z,65
2016-03-27T16:25:56.338Z,55
2016-03-27T16:26:43.778Z,50
2016-03-27T16:27:43.218Z,45
2016-03-27T16:28:42.221Z,95
2016-03-27T16:29:41.958Z,120
2016-03-27T16:30:42.273Z,50
2016-03-27T16:31:42.104Z,65
2016-03-27T16:32:42.498Z,90
2016-03-27T16:33:42.453Z,95
2016-03-27T16:34:42.018Z,85
2016-03-27T16:35:42.661Z,120
2016-03-27T16:36:42.070Z,90
2016-03-27T16:37:42.090Z,80
2016-03-27T16:39:44.032Z,125
2016-03-27T16:40:56.175Z,170
2016-03-27T16:41:42.912Z,210
2016-03-27T16:42:42.556Z,155
2016-03-27T16:43:42.464Z,170
2016-03-27T16:44:42.186Z,260
2016-03-27T16:45:57.267Z,195
2016-03-27T16:46:42.816Z,195
2016-03-27T16:47:44.491Z,180
2016-03-27T16:48:42.931Z,215
2016-03-27T16:50:48.077Z,310
2016-03-27T16:51:45.642Z,290
2016-03-27T16:52:56.536Z,215
2016-03-27T16:53:44.585Z,160
2016-03-27T16:54:56.400Z,70
2016-03-27T16:55:56.138Z,45
2016-03-27T16:56:44.421Z,40
2016-03-27T16:57:56.393Z,40
2016-03-27T16:58:44.285Z,40
2016-03-27T16:59:44.649Z,40
2016-03-27T17:00:41.635Z,35
2016-03-27T17:01:41.371Z,35
2016-03-27T17:02:41.532Z,35
2016-03-27T17:03:41.815Z,40
2016-03-27T17:04:56.146Z,35
2016-03-27T17:05:41.633Z,35
2016-03-27T17:06:41.276Z,35
2016-03-27T17:07:41.998Z,35
2016-03-27T17:08:42.157Z,35
2016-03-27T17:09:41.738Z,35
2016-03-27T17:10:41.240Z,30
2016-03-27T17:11:41.290Z,30
2016-03-27T17:12:41.105Z,30
2016-03-27T17:13:41.139Z,30
2016-03-27T17:14:41.142Z,30
